createdAt,value
2023-05-05T00:00:44.808Z,101230.03
2023-05-05T00:01:45.324Z,101231
2023-05-05T00:02:45.773Z,101232.7
2023-05-05T00:03:46.259Z,101229.81
2023-05-05T00:04:46.421Z,101231.22
2023-05-05T00:05:47.901Z,101226.71
2023-05-05T00:06:47.301Z,101229.72
2023-05-05T00:07:47.714Z,101226.86
2023-05-05T00:08:47.939Z,101230.44
2023-05-05T00:09:48.295Z,101228.78
2023-05-05T00:10:49.639Z,101228.73
2023-05-05T00:11:49.274Z,101226.44
2023-05-05T00:12:49.645Z,101227.83
2023-05-05T00:13:50.939Z,101228.34
2023-05-05T00:14:50.522Z,101231.7
2023-05-05T00:15:52.905Z,101229.81
2023-05-05T00:16:51.173Z,101231.12
2023-05-05T00:17:51.684Z,101225.8
2023-05-05T00:18:51.984Z,101227.27
2023-05-05T00:19:52.316Z,101226.94
2023-05-05T00:20:52.715Z,101224.25
2023-05-05T00:21:53.230Z,101228.45
2023-05-05T00:22:53.750Z,101225.02
2023-05-05T00:23:54.230Z,101221.62
2023-05-05T00:24:54.583Z,101222.69
2023-05-05T00:25:54.688Z,101224.27
2023-05-05T00:26:55.120Z,101225.2
2023-05-05T00:27:56.645Z,101226.96
2023-05-05T00:28:55.960Z,101224.28
2023-05-05T00:29:56.351Z,101226.94
2023-05-05T00:30:56.917Z,101231.33
2023-05-05T00:31:57.189Z,101226.2
2023-05-05T00:32:57.666Z,101229.05
2023-05-05T00:33:57.828Z,101231.12
2023-05-05T00:34:58.236Z,101231.1
2023-05-05T00:35:58.655Z,101228.87
2023-05-05T00:36:58.968Z,101229.35
2023-05-05T00:37:59.575Z,101232.7
2023-05-05T00:39:00.489Z,101229.48
2023-05-05T00:40:00.327Z,101228.95
2023-05-05T00:41:00.676Z,101228.18
2023-05-05T00:42:00.966Z,101229.5
2023-05-05T00:43:01.562Z,101233.57
2023-05-05T00:44:01.876Z,101232.22
2023-05-05T00:45:02.205Z,101232.36
2023-05-05T00:46:11.962Z,101234.92
2023-05-05T00:47:04.818Z,101235.09
2023-05-05T00:48:05.972Z,101232.48
2023-05-05T00:49:05.445Z,101238.31
2023-05-05T00:50:09.771Z,101237.45
2023-05-05T00:51:07.555Z,101233.73
2023-05-05T00:52:08.900Z,101236.55
2023-05-05T00:53:08.203Z,101236.78
2023-05-05T00:54:08.802Z,101236.73
2023-05-05T00:55:09.829Z,101234.62
2023-05-05T00:56:09.438Z,101235.25
2023-05-05T00:57:10.683Z,101238.08
2023-05-05T00:58:10.376Z,101237.38
2023-05-05T00:59:10.689Z,101238.25
2023-05-05T01:00:11.876Z,101237.44
2023-05-05T01:01:14.622Z,101239.87
2023-05-05T01:02:12.360Z,101239.08
2023-05-05T01:03:12.677Z,101242.23
2023-05-05T01:04:12.876Z,101245.56
2023-05-05T01:05:15.327Z,101241.52
2023-05-05T01:14:43.859Z,101244.88
2023-05-05T01:15:38.053Z,101242.75
2023-05-05T01:16:40.304Z,101243.45
2023-05-05T01:17:44.137Z,101243.59
2023-05-05T01:22:52.004Z,101244.55
2023-05-05T01:33:05.703Z,101238.01
2023-05-05T01:34:07.769Z,101239.27
2023-05-05T01:39:16.451Z,101239.32
2023-05-05T01:40:18.184Z,101235.41
2023-05-05T01:41:23.267Z,101236.45
2023-05-05T01:42:17.841Z,101233.31
2023-05-05T01:43:20.114Z,101236.77
2023-05-05T01:44:19.569Z,101236.55
2023-05-05T01:45:22.153Z,101238.71
2023-05-05T01:46:21.802Z,101239.64
2023-05-05T01:47:22.462Z,101239.09
2023-05-05T01:48:22.476Z,101238.67
2023-05-05T01:49:20.842Z,101233.85
2023-05-05T01:50:22.284Z,101239.84
2023-05-05T01:51:24.636Z,101232.41
2023-05-05T01:52:24.026Z,101237.67
2023-05-05T01:53:25.654Z,101233.88
2023-05-05T01:54:24.161Z,101234.71
2023-05-05T01:55:25.993Z,101232.8
2023-05-05T01:56:26.335Z,101235.22
2023-05-05T01:57:26.593Z,101231.93
2023-05-05T01:58:26.950Z,101228.02
2023-05-05T01:59:28.083Z,101235.34
2023-05-05T02:00:27.374Z,101231.45
2023-05-05T02:01:27.795Z,101236.66
2023-05-05T02:02:28.849Z,101235.34
2023-05-05T02:03:28.951Z,101233.09
2023-05-05T02:04:30.069Z,101234.81
2023-05-05T02:05:29.781Z,101236.2
2023-05-05T02:06:30.985Z,101236.09
2023-05-05T02:07:30.789Z,101234.11
2023-05-05T02:08:31.628Z,101232.7
2023-05-05T02:09:30.921Z,101236.16
2023-05-05T02:10:30.913Z,101235.52
2023-05-05T02:11:31.140Z,101235.14
2023-05-05T02:12:32.806Z,101230.38
2023-05-05T02:13:32.441Z,101233.39
2023-05-05T02:14:32.994Z,101230.56
2023-05-05T02:15:31.890Z,101231.67
2023-05-05T02:16:33.617Z,101232.52
2023-05-05T02:17:33.435Z,101238.17
2023-05-05T02:18:34.359Z,101232.53
2023-05-05T02:19:39.080Z,101236.44
2023-05-05T02:20:39.581Z,101234.73
2023-05-05T02:21:37.759Z,101241.32
2023-05-05T02:22:37.663Z,101236.28
2023-05-05T02:23:38.579Z,101237.75
2023-05-05T02:24:38.430Z,101242.22
2023-05-05T02:25:45.766Z,101244.25
2023-05-05T02:26:45.975Z,101241.08
2023-05-05T02:27:45.270Z,101247.28
2023-05-05T02:28:51.731Z,101243.62
2023-05-05T02:29:50.630Z,101241.2
2023-05-05T02:30:55.750Z,101240.39
2023-05-05T02:31:58.907Z,101242
2023-05-05T02:33:02.336Z,101245.7
2023-05-05T02:34:02.059Z,101245
2023-05-05T02:35:12.993Z,101242.11
2023-05-05T02:37:04.688Z,101240.12
2023-05-05T02:38:05.400Z,101238.5
2023-05-05T02:39:06.727Z,101242.71
2023-05-05T02:40:09.796Z,101238.27
2023-05-05T02:41:11.805Z,101239.12
2023-05-05T02:42:10.037Z,101242.28
2023-05-05T02:43:12.209Z,101237.88
2023-05-05T02:44:12.733Z,101244.73
2023-05-05T02:46:12.576Z,101245.94
2023-05-05T02:47:12.619Z,101245.52
2023-05-05T02:48:13.562Z,101247.81
2023-05-05T02:49:14.896Z,101247.75
2023-05-05T02:50:15.942Z,101245.44
2023-05-05T02:51:14.875Z,101250.81
2023-05-05T02:52:15.542Z,101253.84
2023-05-05T02:53:16.265Z,101247.37
2023-05-05T02:54:16.634Z,101252
2023-05-05T02:55:16.671Z,101253.52
2023-05-05T02:57:20.803Z,101256.28
2023-05-05T03:03:47.681Z,101254.37
2023-05-05T03:04:48.883Z,101253.34
2023-05-05T03:06:44.594Z,101251.83
2023-05-05T03:12:03.921Z,101254.5
2023-05-05T03:13:02.907Z,101257.2
2023-05-05T03:15:08.811Z,101255.98
2023-05-05T03:16:08.227Z,101256.07
2023-05-05T03:17:06.920Z,101257.34
2023-05-05T03:18:09.048Z,101259.95
2023-05-05T03:19:10.683Z,101259.04
2023-05-05T03:20:09.985Z,101260.38
2023-05-05T03:21:10.046Z,101258.02
2023-05-05T03:22:09.683Z,101257.12
2023-05-05T03:23:09.477Z,101262.89
2023-05-05T03:24:16.961Z,101259.92
2023-05-05T03:25:10.106Z,101260.27
2023-05-05T03:26:10.324Z,101258.75
2023-05-05T03:27:10.736Z,101256.67
2023-05-05T03:28:11.259Z,101253.69
2023-05-05T03:29:11.882Z,101257.11
2023-05-05T03:30:12.921Z,101255.92
2023-05-05T03:31:12.917Z,101255.83
2023-05-05T03:32:12.793Z,101257.59
2023-05-05T03:33:13.137Z,101257.52
2023-05-05T03:34:13.562Z,101255.9
2023-05-05T03:35:14.474Z,101258.11
2023-05-05T03:36:14.385Z,101255.25
2023-05-05T03:37:14.812Z,101256.41
2023-05-05T03:38:15.103Z,101257.73
2023-05-05T03:39:15.426Z,101255.12
2023-05-05T03:40:16.877Z,101259.09
2023-05-05T03:41:16.266Z,101258.09
2023-05-05T03:42:16.772Z,101263.35
2023-05-05T03:43:17.297Z,101260.55
2023-05-05T03:44:17.611Z,101264.34
2023-05-05T03:45:18.224Z,101257.37
2023-05-05T03:46:18.506Z,101262.05
2023-05-05T03:47:18.651Z,101261.62
2023-05-05T03:48:19.073Z,101265.29
2023-05-05T03:49:19.688Z,101261.25
2023-05-05T03:50:19.905Z,101261.23
2023-05-05T03:51:20.209Z,101263.77
2023-05-05T03:52:20.738Z,101262.25
2023-05-05T03:53:21.049Z,101262.16
2023-05-05T03:54:21.465Z,101265.72
2023-05-05T03:55:22.292Z,101265.11
2023-05-05T03:56:22.246Z,101263.59
2023-05-05T03:57:22.724Z,101266.22
2023-05-05T03:58:23.137Z,101266.11
2023-05-05T03:59:23.646Z,101268.27
2023-05-05T04:00:23.964Z,101270.6
2023-05-05T04:01:24.382Z,101268.45
2023-05-05T04:02:24.854Z,101266.66
2023-05-05T04:03:25.395Z,101268.12
2023-05-05T04:04:25.703Z,101270.83
2023-05-05T04:05:26.531Z,101273.7
2023-05-05T04:06:26.258Z,101270.81
2023-05-05T04:07:26.873Z,101273.18
2023-05-05T04:08:27.081Z,101269.34
2023-05-05T04:09:27.503Z,101277.44
2023-05-05T04:10:28.177Z,101274.21
2023-05-05T04:11:28.331Z,101272.5
2023-05-05T04:12:28.756Z,101272.26
2023-05-05T04:13:29.505Z,101269.11
2023-05-05T04:14:29.654Z,101274.76
2023-05-05T04:15:30.327Z,101279.88
2023-05-05T04:16:30.477Z,101272.55
2023-05-05T04:17:30.836Z,101276.23
2023-05-05T04:18:31.257Z,101277.12
2023-05-05T04:19:34.892Z,101272.42
2023-05-05T04:20:35.159Z,101275.45
2023-05-05T04:21:32.697Z,101278.47
2023-05-05T04:22:33.096Z,101276.46
2023-05-05T04:23:33.534Z,101278.02
2023-05-05T04:24:33.849Z,101278.93
2023-05-05T04:25:34.370Z,101280.12
2023-05-05T04:26:34.791Z,101281.13
2023-05-05T04:27:35.306Z,101282.92
2023-05-05T04:28:35.517Z,101281.45
2023-05-05T04:29:36.014Z,101283.94
2023-05-05T04:30:36.350Z,101281.08
2023-05-05T04:31:36.750Z,101286.5
2023-05-05T04:32:37.245Z,101283.7
2023-05-05T04:33:37.603Z,101280.83
2023-05-05T04:34:37.912Z,101280.33
2023-05-05T04:35:38.321Z,101281.75
2023-05-05T04:36:39.562Z,101281.08
2023-05-05T04:37:39.156Z,101283.19
2023-05-05T04:38:39.608Z,101285.34
2023-05-05T04:39:40.091Z,101285.09
2023-05-05T04:40:40.821Z,101284.66
2023-05-05T04:41:40.817Z,101286.57
2023-05-05T04:42:41.189Z,101289.02
2023-05-05T04:43:41.502Z,101293.22
2023-05-05T04:44:42.196Z,101290.95
2023-05-05T04:46:44.193Z,101293.09
2023-05-05T04:47:44.674Z,101292.62
2023-05-05T04:48:44.967Z,101295.06
2023-05-05T04:49:45.294Z,101293.17
2023-05-05T04:50:45.598Z,101292.92
2023-05-05T04:51:46.122Z,101295.69
2023-05-05T04:52:46.431Z,101293.95
2023-05-05T04:53:46.592Z,101294.42
2023-05-05T04:54:47.158Z,101297.2
2023-05-05T04:55:47.267Z,101300.95
2023-05-05T04:56:47.802Z,101303.58
2023-05-05T04:57:47.994Z,101306.55
2023-05-05T04:58:48.321Z,101305.89
2023-05-05T04:59:48.634Z,101306.12
2023-05-05T05:00:49.140Z,101304.78
2023-05-05T05:01:49.327Z,101307.04
2023-05-05T05:02:49.623Z,101310.02
2023-05-05T05:03:50.014Z,101307.95
2023-05-05T05:04:50.194Z,101306.86
2023-05-05T05:05:50.605Z,101309.87
2023-05-05T05:06:51.128Z,101309.81
2023-05-05T05:07:51.236Z,101305.41
2023-05-05T05:08:51.959Z,101305.44
2023-05-05T05:09:51.971Z,101308.26
2023-05-05T05:10:52.285Z,101308.41
2023-05-05T05:11:52.706Z,101304.67
2023-05-05T05:12:53.019Z,101309.1
2023-05-05T05:13:53.234Z,101312.46
2023-05-05T05:14:53.529Z,101310.53
2023-05-05T05:15:54.158Z,101310.34
2023-05-05T05:16:54.531Z,101311.86
2023-05-05T05:17:54.846Z,101310.17
2023-05-05T05:18:54.992Z,101312.03
2023-05-05T05:19:55.466Z,101311.77
2023-05-05T05:20:55.842Z,101310.77
2023-05-05T05:21:56.035Z,101316.22
2023-05-05T05:22:56.294Z,101313.7
2023-05-05T05:23:56.774Z,101315.15
2023-05-05T05:24:57.072Z,101315.89
2023-05-05T05:25:57.402Z,101313.39
2023-05-05T05:26:57.805Z,101315.72
2023-05-05T05:28:08.985Z,101313.88
2023-05-05T05:29:04.795Z,101313.44
2023-05-05T05:30:03.225Z,101316.14
2023-05-05T05:31:03.605Z,101314.45
2023-05-05T05:32:04.227Z,101316.64
2023-05-05T05:33:04.442Z,101321.74
2023-05-05T05:34:04.615Z,101317.67
2023-05-05T05:35:05.391Z,101319.12
2023-05-05T05:36:06.031Z,101317.02
2023-05-05T05:37:05.668Z,101318.64
2023-05-05T05:38:05.977Z,101323.52
2023-05-05T05:39:06.178Z,101316.48
2023-05-05T05:40:07.836Z,101323.37
2023-05-05T05:41:07.543Z,101321.27
2023-05-05T05:42:07.328Z,101317.98
2023-05-05T05:43:07.683Z,101320.19
2023-05-05T05:44:07.955Z,101321.64
2023-05-05T05:45:09.552Z,101318.47
2023-05-05T05:46:09.463Z,101323.02
2023-05-05T05:47:09.114Z,101322.48
2023-05-05T05:48:09.489Z,101322.28
2023-05-05T05:49:09.625Z,101325.4
2023-05-05T05:50:10.806Z,101321.03
2023-05-05T05:51:10.454Z,101323.84
2023-05-05T05:52:10.875Z,101327.23
2023-05-05T05:53:11.052Z,101325.73
2023-05-05T05:54:11.405Z,101323.14
2023-05-05T05:55:11.930Z,101322.14
2023-05-05T05:56:12.243Z,101325.52
2023-05-05T05:57:12.551Z,101321.54
2023-05-05T05:58:12.860Z,101324.06
2023-05-05T05:59:13.182Z,101327.69
2023-05-05T06:00:15.048Z,101324.81
2023-05-05T06:01:13.810Z,101328.03
2023-05-05T06:02:14.469Z,101324.45
2023-05-05T06:03:14.915Z,101326.34
2023-05-05T06:04:15.093Z,101325.59
2023-05-05T06:05:15.570Z,101328.34
2023-05-05T06:06:15.576Z,101328.74
2023-05-05T06:07:15.955Z,101333.08
2023-05-05T06:08:16.314Z,101331.06
2023-05-05T06:09:16.745Z,101333.31
2023-05-05T06:10:27.206Z,101328.64
2023-05-05T06:11:17.811Z,101329.62
2023-05-05T06:12:18.287Z,101333.45
2023-05-05T06:13:18.737Z,101330.62
2023-05-05T06:14:20.113Z,101334.52
2023-05-05T06:15:19.375Z,101329.53
2023-05-05T06:16:19.701Z,101330.69
2023-05-05T06:17:20.045Z,101334.55
2023-05-05T06:18:20.625Z,101328.36
2023-05-05T06:19:21.206Z,101329.66
2023-05-05T06:20:21.046Z,101328.66
2023-05-05T06:21:21.414Z,101330.25
2023-05-05T06:22:21.878Z,101331.71
2023-05-05T06:23:22.194Z,101330.88
2023-05-05T06:24:22.650Z,101325.66
2023-05-05T06:25:22.892Z,101329.17
2023-05-05T06:26:23.181Z,101328.39
2023-05-05T06:27:23.813Z,101325.98
2023-05-05T06:28:24.317Z,101326.61
2023-05-05T06:29:24.433Z,101323.84
2023-05-05T06:30:24.648Z,101329.71
2023-05-05T06:31:25.325Z,101329.66
2023-05-05T06:32:25.498Z,101337.33
2023-05-05T06:33:25.891Z,101329.46
2023-05-05T06:34:26.201Z,101329.59
2023-05-05T06:35:26.707Z,101326.02
2023-05-05T06:36:27.086Z,101331.16
2023-05-05T06:37:27.983Z,101333.52
2023-05-05T06:38:27.580Z,101334.97
2023-05-05T06:39:27.764Z,101329.39
2023-05-05T06:40:28.351Z,101339.16
2023-05-05T06:41:29.018Z,101332.88
2023-05-05T06:42:29.234Z,101337.91
2023-05-05T06:43:29.738Z,101335.17
2023-05-05T06:44:29.707Z,101326.61
2023-05-05T06:45:30.204Z,101332.23
2023-05-05T06:46:30.550Z,101333.69
2023-05-05T06:47:30.933Z,101329.6
2023-05-05T06:48:31.213Z,101333.94
2023-05-05T06:49:31.531Z,101332.84
2023-05-05T06:50:31.840Z,101331.89
2023-05-05T06:51:32.361Z,101333.33
2023-05-05T06:52:32.607Z,101336.61
2023-05-05T06:53:33.012Z,101337.33
2023-05-05T06:54:33.515Z,101338.7
2023-05-05T06:55:33.734Z,101333.89
2023-05-05T06:56:34.129Z,101337.17
2023-05-05T06:57:34.450Z,101330.4
2023-05-05T06:58:34.704Z,101333.84
2023-05-05T06:59:35.171Z,101335.01
2023-05-05T07:00:35.532Z,101336.5
2023-05-05T07:01:36.108Z,101335.19
2023-05-05T07:02:36.283Z,101335.14
2023-05-05T07:03:36.683Z,101335.22
2023-05-05T07:04:36.862Z,101335.84
2023-05-05T07:05:37.275Z,101333.91
2023-05-05T07:06:37.701Z,101333.47
2023-05-05T07:07:37.990Z,101330.49
2023-05-05T07:08:38.272Z,101338.54
2023-05-05T07:09:38.728Z,101332.38
2023-05-05T07:10:39.058Z,101337.58
2023-05-05T07:11:39.355Z,101335.24
2023-05-05T07:12:40.009Z,101335.64
2023-05-05T07:13:40.085Z,101336.46
2023-05-05T07:14:40.503Z,101337.89
2023-05-05T07:15:43.999Z,101333.52
2023-05-05T07:16:41.588Z,101332.58
2023-05-05T07:17:42.277Z,101331.62
2023-05-05T07:18:42.235Z,101330.89
2023-05-05T07:19:42.504Z,101327.19
2023-05-05T07:20:44.631Z,101333.22
2023-05-05T07:21:43.383Z,101329.65
2023-05-05T07:22:43.791Z,101329.16
2023-05-05T07:23:44.048Z,101337.62
2023-05-05T07:24:44.420Z,101331.33
2023-05-05T07:25:44.880Z,101337.52
2023-05-05T07:26:45.089Z,101326.03
2023-05-05T07:27:45.718Z,101326.16
2023-05-05T07:28:45.940Z,101322.33
2023-05-05T07:29:46.192Z,101328.42
2023-05-05T07:30:46.561Z,101332.66
2023-05-05T07:31:47.113Z,101321.11
2023-05-05T07:32:47.667Z,101331.41
2023-05-05T07:33:48.228Z,101331.16
2023-05-05T07:34:48.106Z,101329.56
2023-05-05T07:35:48.432Z,101329.38
2023-05-05T07:36:48.950Z,101324.29
2023-05-05T07:37:49.203Z,101327.37
2023-05-05T07:38:49.570Z,101331.74
2023-05-05T07:39:49.878Z,101324.09
2023-05-05T07:40:50.205Z,101331.55
2023-05-05T07:41:51.129Z,101329.75
2023-05-05T07:42:51.029Z,101330.59
2023-05-05T07:43:51.233Z,101326.33
2023-05-05T07:44:51.759Z,101327.64
2023-05-05T07:45:52.094Z,101330
2023-05-05T07:46:52.393Z,101326.5
2023-05-05T07:47:52.974Z,101319.84
2023-05-05T07:48:53.242Z,101319.22
2023-05-05T07:49:56.976Z,101322.48
2023-05-05T07:50:54.568Z,101322.14
2023-05-05T07:51:54.736Z,101335.1
2023-05-05T07:53:02.441Z,101333.47
2023-05-05T07:53:56.032Z,101333.88
2023-05-05T07:54:56.130Z,101327.39
2023-05-05T07:55:56.551Z,101336.05
2023-05-05T07:56:56.850Z,101333.81
2023-05-05T07:57:57.385Z,101327.45
2023-05-05T07:58:57.683Z,101336.78
2023-05-05T07:59:58.113Z,101332.75
2023-05-05T08:00:58.547Z,101333.91
2023-05-05T08:01:58.754Z,101330.12
2023-05-05T08:02:59.316Z,101325.65
2023-05-05T08:03:59.597Z,101331
2023-05-05T08:04:59.886Z,101331.03
2023-05-05T08:07:03.008Z,101333.4
2023-05-05T08:08:03.837Z,101327.92
2023-05-05T08:09:04.100Z,101331.44
2023-05-05T08:10:04.730Z,101328.98
2023-05-05T08:11:04.845Z,101324.52
2023-05-05T08:12:05.164Z,101331.25
2023-05-05T08:13:05.318Z,101328.75
2023-05-05T08:14:05.534Z,101327.59
2023-05-05T08:15:07.470Z,101333.73
2023-05-05T08:16:07.189Z,101330.39
2023-05-05T08:17:07.025Z,101327.36
2023-05-05T08:18:07.187Z,101332.62
2023-05-05T08:19:17.662Z,101332.75
2023-05-05T08:20:08.789Z,101333.77
2023-05-05T08:21:09.053Z,101326.48
2023-05-05T08:22:08.383Z,101326.21
2023-05-05T08:23:08.818Z,101330.68
2023-05-05T08:24:09.113Z,101323.84
2023-05-05T08:25:10.138Z,101325.7
2023-05-05T08:26:09.749Z,101327.75
2023-05-05T08:27:10.280Z,101330.26
2023-05-05T08:28:10.591Z,101331.25
2023-05-05T08:29:11.008Z,101334.23
2023-05-05T08:30:12.252Z,101327.81
2023-05-05T08:31:11.739Z,101333.95
2023-05-05T08:32:12.046Z,101333.27
2023-05-05T08:33:12.602Z,101332.26
2023-05-05T08:34:12.915Z,101331.17
2023-05-05T08:35:13.539Z,101325.47
2023-05-05T08:36:13.511Z,101332.63
2023-05-05T08:37:13.760Z,101322.02
2023-05-05T08:38:14.443Z,101330.75
2023-05-05T08:39:14.659Z,101330.95
2023-05-05T08:40:15.055Z,101330.48
2023-05-05T08:41:18.307Z,101338.98
2023-05-05T08:42:29.075Z,101326.38
2023-05-05T08:43:19.074Z,101329.66
2023-05-05T08:44:18.702Z,101332.28
2023-05-05T08:45:19.097Z,101319.2
2023-05-05T08:46:20.154Z,101315.52
2023-05-05T08:47:19.911Z,101325.62
2023-05-05T08:48:20.303Z,101326
2023-05-05T08:49:21.972Z,101332.77
2023-05-05T08:51:27.741Z,101329.05
2023-05-05T08:52:28.817Z,101342.76
2023-05-05T08:54:30.413Z,101335.41
2023-05-05T08:55:30.242Z,101342.11
2023-05-05T08:56:33.589Z,101336.52
2023-05-05T08:58:32.576Z,101341.24
2023-05-05T08:59:33.316Z,101340.86
2023-05-05T09:00:34.535Z,101340.1
2023-05-05T09:01:35.102Z,101352.75
2023-05-05T09:02:34.955Z,101362.95
2023-05-05T09:03:35.537Z,101370.94
2023-05-05T09:04:35.086Z,101359.05
2023-05-05T09:05:36.111Z,101360.44
2023-05-05T09:06:35.612Z,101362.53
2023-05-05T09:07:36.339Z,101370.03
2023-05-05T09:08:37.473Z,101360.55
2023-05-05T09:09:38.198Z,101364.91
2023-05-05T09:10:40.242Z,101363.81
2023-05-05T09:11:38.821Z,101362.73
2023-05-05T09:12:39.656Z,101364.33
2023-05-05T09:13:49.890Z,101370.78
2023-05-05T09:14:42.311Z,101367.42
2023-05-05T09:16:47.278Z,101361.48
2023-05-05T09:17:47.351Z,101373.06
2023-05-05T09:18:47.829Z,101370.09
2023-05-05T09:20:51.263Z,101374.73
2023-05-05T09:21:51.792Z,101367.56
2023-05-05T09:22:52.035Z,101366.02
2023-05-05T09:24:55.855Z,101372.39
2023-05-05T09:26:08.406Z,101369.81
2023-05-05T09:27:00.964Z,101372.29
2023-05-05T09:28:09.065Z,101370.64
2023-05-05T09:29:02.383Z,101374.12
2023-05-05T09:30:01.880Z,101359.84
2023-05-05T09:31:14.901Z,101360.77
2023-05-05T09:32:07.316Z,101359.3
2023-05-05T09:33:07.716Z,101363.01
2023-05-05T09:34:17.261Z,101354.9
2023-05-05T09:35:09.903Z,101363.44
2023-05-05T09:36:10.216Z,101356.84
2023-05-05T09:37:10.312Z,101360.7
2023-05-05T09:38:13.392Z,101358.27
2023-05-05T09:39:11.142Z,101355.84
2023-05-05T09:40:14.229Z,101353.94
2023-05-05T09:41:11.885Z,101360.92
2023-05-05T09:42:19.771Z,101357.23
2023-05-05T09:43:18.670Z,101356.32
2023-05-05T09:45:28.810Z,101355.2
2023-05-05T09:46:21.748Z,101356.88
2023-05-05T09:47:29.427Z,101362.23
2023-05-05T09:48:27.156Z,101357.08
2023-05-05T09:49:24.684Z,101363.27
2023-05-05T09:50:25.153Z,101362.14
2023-05-05T09:51:31.540Z,101352.56
2023-05-05T09:52:29.228Z,101357.64
2023-05-05T09:53:39.728Z,101355.27
2023-05-05T09:54:32.281Z,101354.11
2023-05-05T09:55:32.661Z,101351.55
2023-05-05T09:56:39.833Z,101355.08
2023-05-05T09:57:37.384Z,101355.53
2023-05-05T09:58:37.805Z,101363.34
2023-05-05T09:59:37.860Z,101377.85
2023-05-05T10:00:39.187Z,101384.55
2023-05-05T10:01:38.960Z,101376.58
2023-05-05T10:02:39.905Z,101381.47
2023-05-05T10:03:50.359Z,101382.27
2023-05-05T10:04:42.876Z,101375.83
2023-05-05T10:06:45.316Z,101382.21
2023-05-05T10:07:46.816Z,101379.71
2023-05-05T10:09:47.843Z,101383.9
2023-05-05T10:11:49.856Z,101383.5
2023-05-05T10:12:50.699Z,101388.16
2023-05-05T10:13:50.419Z,101389.65
2023-05-05T10:14:55.558Z,101395.95
2023-05-05T10:15:55.589Z,101398.23
2023-05-05T10:16:54.808Z,101396.34
2023-05-05T10:18:06.953Z,101396.05
2023-05-05T10:18:58.401Z,101408.59
2023-05-05T10:19:57.478Z,101405.95
2023-05-05T10:21:00.771Z,101398.23
2023-05-05T10:22:03.554Z,101416.53
2023-05-05T10:23:05.672Z,101411.21
2023-05-05T10:26:13.606Z,101418.89
2023-05-05T10:28:19.965Z,101418.12
2023-05-05T10:30:23.483Z,101403.04
2023-05-05T10:31:26.505Z,101395.75
2023-05-05T10:32:51.126Z,101385.27
2023-05-05T10:33:32.266Z,101382.39
2023-05-05T10:34:30.988Z,101378.78
2023-05-05T10:35:31.494Z,101374.17
2023-05-05T10:36:30.062Z,101374.41
2023-05-05T10:37:30.380Z,101371.56
2023-05-05T10:38:31.710Z,101375.21
2023-05-05T10:39:31.623Z,101371.19
2023-05-05T10:40:32.157Z,101367
2023-05-05T10:41:33.888Z,101369.2
2023-05-05T10:42:31.691Z,101365.75
2023-05-05T10:43:32.375Z,101366.2
2023-05-05T10:44:32.686Z,101367.41
2023-05-05T10:45:32.974Z,101366.56
2023-05-05T10:46:33.359Z,101366.39
2023-05-05T10:47:34.569Z,101366.42
2023-05-05T10:48:42.796Z,101365.33
2023-05-05T10:50:43.775Z,101361.56
2023-05-05T10:57:06.970Z,101359.41
2023-05-05T10:58:04.518Z,101361.25
2023-05-05T11:00:09.232Z,101360.11
2023-05-05T11:01:08.042Z,101355.2
2023-05-05T11:05:18.293Z,101350.77
2023-05-05T11:06:17.253Z,101354.28
2023-05-05T11:07:23.507Z,101356.78
2023-05-05T11:08:27.217Z,101363.38
2023-05-05T11:09:28.026Z,101369.09
2023-05-05T11:10:25.378Z,101363.66
2023-05-05T11:12:28.457Z,101355.27
2023-05-05T11:13:28.729Z,101363.72
2023-05-05T11:14:28.369Z,101368.83
2023-05-05T11:17:45.798Z,101371.08
2023-05-05T11:18:37.762Z,101373.62
2023-05-05T11:19:47.572Z,101381.56
2023-05-05T11:23:52.593Z,101380.66
2023-05-05T11:24:50.102Z,101378.73
2023-05-05T11:25:50.858Z,101372.45
2023-05-05T11:26:51.611Z,101370.04
2023-05-05T11:30:11.512Z,101364.28
2023-05-05T11:35:11.003Z,101361.62
2023-05-05T11:36:16.330Z,101365.22
2023-05-05T11:37:14.817Z,101359.1
2023-05-05T11:38:17.277Z,101359.94
2023-05-05T11:40:30.741Z,101356.55
2023-05-05T11:42:26.964Z,101359.55
2023-05-05T11:43:28.119Z,101361.41
2023-05-05T11:44:32.180Z,101353.89
2023-05-05T11:45:30.118Z,101355.73
2023-05-05T11:46:30.147Z,101360.11
2023-05-05T11:47:32.223Z,101358.48
2023-05-05T11:48:30.785Z,101358.34
2023-05-05T11:49:33.162Z,101353.16
2023-05-05T11:50:33.528Z,101352.02
2023-05-05T11:51:32.307Z,101352.54
2023-05-05T11:52:32.360Z,101347.22
2023-05-05T11:53:33.965Z,101349.91
2023-05-05T11:54:35.497Z,101346.44
2023-05-05T11:55:33.549Z,101353.19
2023-05-05T11:56:33.872Z,101344.61
2023-05-05T11:57:34.329Z,101347.67
2023-05-05T11:58:34.592Z,101343.53
2023-05-05T11:59:36.544Z,101344.8
2023-05-05T12:00:35.934Z,101344.78
2023-05-05T12:01:42.627Z,101346.56
2023-05-05T12:02:40.247Z,101342.84
2023-05-05T12:03:41.193Z,101346.28
2023-05-05T12:04:40.858Z,101340.53
2023-05-05T12:05:41.497Z,101344.41
2023-05-05T12:06:42.068Z,101343.21
2023-05-05T12:07:42.101Z,101343.95
2023-05-05T12:08:42.467Z,101337.98
2023-05-05T12:09:46.856Z,101340.84
2023-05-05T12:10:44.507Z,101343.27
2023-05-05T12:12:46.692Z,101348.61
2023-05-05T12:13:46.571Z,101344.08
2023-05-05T12:14:52.921Z,101343.12
2023-05-05T12:15:50.491Z,101338.48
2023-05-05T12:17:50.958Z,101351.1
2023-05-05T12:19:55.623Z,101353.39
2023-05-05T12:20:55.556Z,101346.83
2023-05-05T12:21:56.356Z,101348.66
2023-05-05T12:23:03.525Z,101349.17
2023-05-05T12:24:01.154Z,101351.34
2023-05-05T12:25:06.933Z,101347.83
2023-05-05T12:26:04.982Z,101352.22
2023-05-05T12:27:11.855Z,101343.15
2023-05-05T12:28:09.821Z,101355.53
2023-05-05T12:29:09.615Z,101348
2023-05-05T12:30:15.474Z,101349.42
2023-05-05T12:31:13.024Z,101335.95
2023-05-05T12:33:13.649Z,101336.81
2023-05-05T12:34:14.158Z,101341.77
2023-05-05T12:35:14.579Z,101348.98
2023-05-05T12:36:15.299Z,101346.7
2023-05-05T12:37:15.607Z,101336.24
2023-05-05T12:38:15.715Z,101341.12
2023-05-05T12:39:15.731Z,101333.75
2023-05-05T12:41:19.318Z,101341.95
2023-05-05T12:42:17.176Z,101335.78
2023-05-05T12:44:22.095Z,101333.44
2023-05-05T12:45:22.113Z,101335.1
2023-05-05T12:46:23.122Z,101337.74
2023-05-05T12:47:32.751Z,101338.41
2023-05-05T12:48:25.204Z,101338.07
2023-05-05T12:49:26.290Z,101334.25
2023-05-05T12:50:32.584Z,101339.05
2023-05-05T12:51:30.362Z,101332.95
2023-05-05T12:53:32.648Z,101328.11
2023-05-05T12:54:33.377Z,101323.2
2023-05-05T12:55:37.036Z,101325.66
2023-05-05T12:56:42.307Z,101327.33
2023-05-05T12:57:34.576Z,101320.86
2023-05-05T12:59:39.517Z,101318.03
2023-05-05T13:00:39.709Z,101327.41
2023-05-05T13:02:42.918Z,101320.1
2023-05-05T13:03:43.258Z,101321.06
2023-05-05T13:04:55.628Z,101319.2
2023-05-05T13:05:48.146Z,101327.8